sensor_id;sensor_type;location;lat;lon;timestamp;pressure;altitude;pressure_sealevel;temperature;humidity
60228;BME280;46091;46.512;6.626;2023-04-23T00:00:57;96535.38;;;15.03;59.49
60228;BME280;46091;46.512;6.626;2023-04-23T00:03:06;96527.88;;;15.00;59.75
60228;BME280;46091;46.512;6.626;2023-04-23T00:05:12;96531.09;;;15.02;59.80
60228;BME280;46091;46.512;6.626;2023-04-23T00:07:19;96524.97;;;15.02;60.00
60228;BME280;46091;46.512;6.626;2023-04-23T00:09:22;96522.53;;;15.00;59.91
60228;BME280;46091;46.512;6.626;2023-04-23T00:11:27;96526.25;;;14.99;60.17
60228;BME280;46091;46.512;6.626;2023-04-23T00:13:31;96533.41;;;14.99;60.24
60228;BME280;46091;46.512;6.626;2023-04-23T00:15:35;96526.69;;;14.96;60.45
60228;BME280;46091;46.512;6.626;2023-04-23T00:17:38;96526.09;;;14.94;60.46
60228;BME280;46091;46.512;6.626;2023-04-23T00:19:41;96522.84;;;14.92;60.60
60228;BME280;46091;46.512;6.626;2023-04-23T00:21:44;96519.84;;;14.89;60.86
60228;BME280;46091;46.512;6.626;2023-04-23T00:23:47;96510.47;;;14.86;60.93
60228;BME280;46091;46.512;6.626;2023-04-23T00:25:49;96520.88;;;14.88;61.21
60228;BME280;46091;46.512;6.626;2023-04-23T00:27:52;96521.94;;;14.87;61.07
60228;BME280;46091;46.512;6.626;2023-04-23T00:29:56;96515.88;;;14.79;61.49
60228;BME280;46091;46.512;6.626;2023-04-23T00:31:59;96511.81;;;14.77;61.71
60228;BME280;46091;46.512;6.626;2023-04-23T00:34:03;96513.44;;;14.78;61.43
60228;BME280;46091;46.512;6.626;2023-04-23T00:36:07;96508.69;;;14.80;61.54
60228;BME280;46091;46.512;6.626;2023-04-23T00:38:10;96514.47;;;14.77;61.86
60228;BME280;46091;46.512;6.626;2023-04-23T00:40:13;96514.25;;;14.78;61.75
60228;BME280;46091;46.512;6.626;2023-04-23T00:42:16;96513.44;;;14.78;61.99
60228;BME280;46091;46.512;6.626;2023-04-23T00:44:19;96518.75;;;14.78;62.07
60228;BME280;46091;46.512;6.626;2023-04-23T00:46:23;96511.47;;;14.73;62.24
60228;BME280;46091;46.512;6.626;2023-04-23T00:48:27;96516.56;;;14.75;62.36
60228;BME280;46091;46.512;6.626;2023-04-23T00:50:30;96517.59;;;14.74;62.45
60228;BME280;46091;46.512;6.626;2023-04-23T00:52:33;96513.91;;;14.75;62.66
60228;BME280;46091;46.512;6.626;2023-04-23T00:54:36;96526.16;;;14.76;62.51
60228;BME280;46091;46.512;6.626;2023-04-23T00:56:39;96523.97;;;14.73;62.65
60228;BME280;46091;46.512;6.626;2023-04-23T00:58:42;96521.88;;;14.75;62.59
60228;BME280;46091;46.512;6.626;2023-04-23T01:00:46;96511.47;;;14.73;62.91
60228;BME280;46091;46.512;6.626;2023-04-23T01:02:51;96518.03;;;14.71;62.97
60228;BME280;46091;46.512;6.626;2023-04-23T01:04:55;96522.94;;;14.74;63.17
60228;BME280;46091;46.512;6.626;2023-04-23T01:07:00;96521.88;;;14.75;63.28
60228;BME280;46091;46.512;6.626;2023-04-23T01:09:03;96513.66;;;14.76;63.25
60228;BME280;46091;46.512;6.626;2023-04-23T01:11:06;96516.09;;;14.78;63.35
60228;BME280;46091;46.512;6.626;2023-04-23T01:13:10;96515.06;;;14.79;63.40
60228;BME280;46091;46.512;6.626;2023-04-23T01:15:16;96512.63;;;14.77;63.35
60228;BME280;46091;46.512;6.626;2023-04-23T01:17:19;96517.13;;;14.77;63.55
60228;BME280;46091;46.512;6.626;2023-04-23T01:19:24;96503.03;;;14.76;63.57
60228;BME280;46091;46.512;6.626;2023-04-23T01:21:28;96502.22;;;14.76;63.78
60228;BME280;46091;46.512;6.626;2023-04-23T01:23:34;96508.69;;;14.80;63.61
60228;BME280;46091;46.512;6.626;2023-04-23T01:25:37;96509.38;;;14.75;63.65
60228;BME280;46091;46.512;6.626;2023-04-23T01:27:40;96510.19;;;14.76;63.62
60228;BME280;46091;46.512;6.626;2023-04-23T01:29:44;96505.69;;;14.76;63.70
60228;BME280;46091;46.512;6.626;2023-04-23T01:31:48;96511.34;;;14.80;63.79
60228;BME280;46091;46.512;6.626;2023-04-23T01:33:52;96507.66;;;14.81;64.04
60228;BME280;46091;46.512;6.626;2023-04-23T01:35:55;96513.56;;;14.83;63.87
60228;BME280;46091;46.512;6.626;2023-04-23T01:37:59;96507.31;;;14.77;64.02
60228;BME280;46091;46.512;6.626;2023-04-23T01:40:06;96502.69;;;14.73;64.22
60228;BME280;46091;46.512;6.626;2023-04-23T01:42:10;96507.84;;;14.68;64.21
60228;BME280;46091;46.512;6.626;2023-04-23T01:44:13;96501.72;;;14.67;64.37
60228;BME280;46091;46.512;6.626;2023-04-23T01:46:16;96508.66;;;14.68;64.50
60228;BME280;46091;46.512;6.626;2023-04-23T01:48:19;96504.16;;;14.69;64.52
60228;BME280;46091;46.512;6.626;2023-04-23T01:50:22;96503.34;;;14.68;64.58
60228;BME280;46091;46.512;6.626;2023-04-23T01:52:26;96504.16;;;14.69;64.50
60228;BME280;46091;46.512;6.626;2023-04-23T01:54:29;96508.66;;;14.68;64.57
60228;BME280;46091;46.512;6.626;2023-04-23T01:56:33;96504.84;;;14.64;64.91
60228;BME280;46091;46.512;6.626;2023-04-23T01:58:36;96504.25;;;14.62;64.62
60228;BME280;46091;46.512;6.626;2023-04-23T02:00:39;96505.72;;;14.58;64.97
60228;BME280;46091;46.512;6.626;2023-04-23T02:02:43;96497.50;;;14.60;64.89
60228;BME280;46091;46.512;6.626;2023-04-23T02:04:46;96503.44;;;14.62;65.02
60228;BME280;46091;46.512;6.626;2023-04-23T02:06:50;96506.69;;;14.64;65.00
60228;BME280;46091;46.512;6.626;2023-04-23T02:08:53;96511.19;;;14.63;65.04
60228;BME280;46091;46.512;6.626;2023-04-23T02:10:56;96512.25;;;14.62;65.10
60228;BME280;46091;46.512;6.626;2023-04-23T02:13:00;96514.09;;;14.62;65.07
60228;BME280;46091;46.512;6.626;2023-04-23T02:15:05;96514.91;;;14.62;65.14
60228;BME280;46091;46.512;6.626;2023-04-23T02:17:08;96504.25;;;14.62;65.13
60228;BME280;46091;46.512;6.626;2023-04-23T02:19:12;96505.66;;;14.65;65.05
60228;BME280;46091;46.512;6.626;2023-04-23T02:21:17;96505.41;;;14.66;65.02
60228;BME280;46091;46.512;6.626;2023-04-23T02:23:20;96494.53;;;14.68;65.25
60228;BME280;46091;46.512;6.626;2023-04-23T02:25:23;96491.88;;;14.68;65.15
60228;BME280;46091;46.512;6.626;2023-04-23T02:27:25;96492.47;;;14.70;65.03
60228;BME280;46091;46.512;6.626;2023-04-23T02:29:30;96492.22;;;14.71;65.13
60228;BME280;46091;46.512;6.626;2023-04-23T02:31:32;96486.09;;;14.71;64.96
60228;BME280;46091;46.512;6.626;2023-04-23T02:33:35;96486.56;;;14.68;65.18
60228;BME280;46091;46.512;6.626;2023-04-23T02:35:38;96485.41;;;14.64;65.14
60228;BME280;46091;46.512;6.626;2023-04-23T02:37:41;96482.75;;;14.64;65.22
60228;BME280;46091;46.512;6.626;2023-04-23T02:39:44;96474.75;;;14.64;65.13
60228;BME280;46091;46.512;6.626;2023-04-23T02:41:47;96469.44;;;14.64;65.13
60228;BME280;46091;46.512;6.626;2023-04-23T02:43:49;96467.81;;;14.63;65.29
60228;BME280;46091;46.512;6.626;2023-04-23T02:45:54;96470.47;;;14.63;65.21
60228;BME280;46091;46.512;6.626;2023-04-23T02:47:56;96460.41;;;14.65;65.16
60228;BME280;46091;46.512;6.626;2023-04-23T02:49:59;96459.59;;;14.64;65.28
60228;BME280;46091;46.512;6.626;2023-04-23T02:52:06;96460.19;;;14.66;65.27
60228;BME280;46091;46.512;6.626;2023-04-23T02:54:09;96455.31;;;14.63;65.33
60228;BME280;46091;46.512;6.626;2023-04-23T02:56:12;96450.59;;;14.65;65.44
60228;BME280;46091;46.512;6.626;2023-04-23T02:58:15;96446.88;;;14.66;65.22
60228;BME280;46091;46.512;6.626;2023-04-23T03:00:18;96450.13;;;14.68;65.39
60228;BME280;46091;46.512;6.626;2023-04-23T03:02:22;96447.69;;;14.67;65.51
60228;BME280;46091;46.512;6.626;2023-04-23T03:04:25;96457.88;;;14.70;65.36
60228;BME280;46091;46.512;6.626;2023-04-23T03:06:29;96443.53;;;14.71;65.47
60228;BME280;46091;46.512;6.626;2023-04-23T03:08:32;96444.34;;;14.71;65.44
60228;BME280;46091;46.512;6.626;2023-04-23T03:10:35;96446.81;;;14.73;65.28
60228;BME280;46091;46.512;6.626;2023-04-23T03:12:38;96441.47;;;14.73;65.33
60228;BME280;46091;46.512;6.626;2023-04-23T03:14:41;96442.50;;;14.72;65.58
60228;BME280;46091;46.512;6.626;2023-04-23T03:16:44;96445.16;;;14.72;65.30
60228;BME280;46091;46.512;6.626;2023-04-23T03:18:48;96440.88;;;14.71;65.61
60228;BME280;46091;46.512;6.626;2023-04-23T03:20:51;96437.78;;;14.74;65.55
60228;BME280;46091;46.512;6.626;2023-04-23T03:22:54;96439.41;;;14.75;65.41
60228;BME280;46091;46.512;6.626;2023-04-23T03:24:57;96441.25;;;14.74;65.59
60228;BME280;46091;46.512;6.626;2023-04-23T03:27:00;96441.81;;;14.76;65.38
60228;BME280;46091;46.512;6.626;2023-04-23T03:29:03;96438.13;;;14.77;65.36
60228;BME280;46091;46.512;6.626;2023-04-23T03:31:06;96439.97;;;14.77;65.46
60228;BME280;46091;46.512;6.626;2023-04-23T03:33:09;96429.56;;;14.75;65.49
60228;BME280;46091;46.512;6.626;2023-04-23T03:35:14;96430.38;;;14.76;65.33
60228;BME280;46091;46.512;6.626;2023-04-23T03:37:17;96427.47;;;14.77;65.47
60228;BME280;46091;46.512;6.626;2023-04-23T03:39:19;96429.09;;;14.78;65.49
60228;BME280;46091;46.512;6.626;2023-04-23T03:41:22;96429.09;;;14.78;65.65
60228;BME280;46091;46.512;6.626;2023-04-23T03:43:25;96428.06;;;14.79;65.63
60228;BME280;46091;46.512;6.626;2023-04-23T03:45:29;96429.91;;;14.79;65.40
60228;BME280;46091;46.512;6.626;2023-04-23T03:47:32;96426.22;;;14.80;65.52
60228;BME280;46091;46.512;6.626;2023-04-23T03:49:35;96430.50;;;14.81;65.55
60228;BME280;46091;46.512;6.626;2023-04-23T03:51:40;96427.81;;;14.81;65.70
60228;BME280;46091;46.512;6.626;2023-04-23T03:53:43;96434.75;;;14.82;65.75
60228;BME280;46091;46.512;6.626;2023-04-23T03:55:46;96432.47;;;14.85;65.71
60228;BME280;46091;46.512;6.626;2023-04-23T03:57:49;96434.91;;;14.87;65.79
60228;BME280;46091;46.512;6.626;2023-04-23T03:59:52;96437.81;;;14.85;65.45
60228;BME280;46091;46.512;6.626;2023-04-23T04:01:55;96430.50;;;14.81;65.43
60228;BME280;46091;46.512;6.626;2023-04-23T04:03:59;96429.91;;;14.79;65.74
60228;BME280;46091;46.512;6.626;2023-04-23T04:06:02;96427.00;;;14.80;65.61
60228;BME280;46091;46.512;6.626;2023-04-23T04:08:06;96420.31;;;14.78;65.75
60228;BME280;46091;46.512;6.626;2023-04-23T04:10:10;96414.41;;;14.76;65.52
60228;BME280;46091;46.512;6.626;2023-04-23T04:12:12;96419.72;;;14.76;65.81
60228;BME280;46091;46.512;6.626;2023-04-23T04:14:15;96423.78;;;14.78;65.91
60228;BME280;46091;46.512;6.626;2023-04-23T04:16:18;96416.59;;;14.79;65.67
60228;BME280;46091;46.512;6.626;2023-04-23T04:18:21;96424.59;;;14.79;65.80
60228;BME280;46091;46.512;6.626;2023-04-23T04:20:23;96425.41;;;14.79;65.67
60228;BME280;46091;46.512;6.626;2023-04-23T04:22:29;96419.03;;;14.80;65.89
60228;BME280;46091;46.512;6.626;2023-04-23T04:24:34;96417.19;;;14.81;65.68
60228;BME280;46091;46.512;6.626;2023-04-23T04:26:36;96424.13;;;14.82;65.71
60228;BME280;46091;46.512;6.626;2023-04-23T04:28:40;96417.19;;;14.81;65.82
60228;BME280;46091;46.512;6.626;2023-04-23T04:30:43;96418.81;;;14.82;65.78
60228;BME280;46091;46.512;6.626;2023-04-23T04:32:46;96421.47;;;14.82;65.62
60228;BME280;46091;46.512;6.626;2023-04-23T04:34:51;96416.13;;;14.82;65.64
60228;BME280;46091;46.512;6.626;2023-04-23T04:36:54;96417.56;;;14.84;65.71
60228;BME280;46091;46.512;6.626;2023-04-23T04:38:57;96422.06;;;14.84;65.76
60228;BME280;46091;46.512;6.626;2023-04-23T04:41:02;96416.94;;;14.82;65.61
60228;BME280;46091;46.512;6.626;2023-04-23T04:43:05;96415.69;;;14.85;65.67
60228;BME280;46091;46.512;6.626;2023-04-23T04:45:08;96408.75;;;14.84;65.70
60228;BME280;46091;46.512;6.626;2023-04-23T04:47:12;96400.97;;;14.82;65.58
60228;BME280;46091;46.512;6.626;2023-04-23T04:49:16;96397.50;;;14.82;65.62
60228;BME280;46091;46.512;6.626;2023-04-23T04:51:20;96398.78;;;14.79;65.57
60228;BME280;46091;46.512;6.626;2023-04-23T04:53:23;96400.16;;;14.82;65.63
60228;BME280;46091;46.512;6.626;2023-04-23T04:55:26;96392.19;;;14.82;65.67
60228;BME280;46091;46.512;6.626;2023-04-23T04:57:30;96393.81;;;14.83;65.62
60228;BME280;46091;46.512;6.626;2023-04-23T04:59:33;96393.81;;;14.83;65.78
60228;BME280;46091;46.512;6.626;2023-04-23T05:01:36;96395.47;;;14.84;65.82
60228;BME280;46091;46.512;6.626;2023-04-23T05:03:39;96400.16;;;14.82;65.75
60228;BME280;46091;46.512;6.626;2023-04-23T05:05:42;96395.66;;;14.82;65.81
60228;BME280;46091;46.512;6.626;2023-04-23T05:07:45;96393.00;;;14.82;65.62
60228;BME280;46091;46.512;6.626;2023-04-23T05:09:48;96397.06;;;14.85;65.90
60228;BME280;46091;46.512;6.626;2023-04-23T05:11:51;96392.56;;;14.85;65.82
60228;BME280;46091;46.512;6.626;2023-04-23T05:13:55;96386.44;;;14.85;65.78
60228;BME280;46091;46.512;6.626;2023-04-23T05:15:58;96385.97;;;14.88;65.84
60228;BME280;46091;46.512;6.626;2023-04-23T05:18:02;96387.59;;;14.89;65.60
60228;BME280;46091;46.512;6.626;2023-04-23T05:20:07;96382.03;;;14.91;65.62
60228;BME280;46091;46.512;6.626;2023-04-23T05:22:11;96383.88;;;14.90;65.59
60228;BME280;46091;46.512;6.626;2023-04-23T05:24:14;96381.78;;;14.92;65.65
60228;BME280;46091;46.512;6.626;2023-04-23T05:26:16;96381.78;;;14.92;65.75
60228;BME280;46091;46.512;6.626;2023-04-23T05:28:19;96382.59;;;14.93;65.78
60228;BME280;46091;46.512;6.626;2023-04-23T05:30:24;96380.50;;;14.95;65.83
60228;BME280;46091;46.512;6.626;2023-04-23T05:32:27;96376.59;;;14.97;65.91
60228;BME280;46091;46.512;6.626;2023-04-23T05:34:30;96386.22;;;14.98;65.88
60228;BME280;46091;46.512;6.626;2023-04-23T05:36:32;96384.13;;;15.00;65.99
60228;BME280;46091;46.512;6.626;2023-04-23T05:38:35;96375.09;;;15.01;65.90
60228;BME280;46091;46.512;6.626;2023-04-23T05:40:38;96375.91;;;15.02;65.90
60228;BME280;46091;46.512;6.626;2023-04-23T05:42:41;96376.72;;;15.02;65.85
60228;BME280;46091;46.512;6.626;2023-04-23T05:44:44;96377.50;;;15.03;65.97
60228;BME280;46091;46.512;6.626;2023-04-23T05:46:48;96366.63;;;15.04;65.75
60228;BME280;46091;46.512;6.626;2023-04-23T05:48:51;96377.88;;;15.06;65.95
60228;BME280;46091;46.512;6.626;2023-04-23T05:50:54;96365.97;;;15.09;65.96
60228;BME280;46091;46.512;6.626;2023-04-23T05:52:56;96363.06;;;15.10;65.73
60228;BME280;46091;46.512;6.626;2023-04-23T05:54:59;96364.69;;;15.11;65.69
60228;BME280;46091;46.512;6.626;2023-04-23T05:57:03;96357.50;;;15.12;65.92
60228;BME280;46091;46.512;6.626;2023-04-23T05:59:06;96358.88;;;15.14;66.01
60228;BME280;46091;46.512;6.626;2023-04-23T06:01:08;96353.31;;;15.16;65.95
60228;BME280;46091;46.512;6.626;2023-04-23T06:03:13;96356.59;;;15.18;65.92
60228;BME280;46091;46.512;6.626;2023-04-23T06:05:16;96356.34;;;15.20;65.85
60228;BME280;46091;46.512;6.626;2023-04-23T06:07:20;96355.88;;;15.23;65.74
60228;BME280;46091;46.512;6.626;2023-04-23T06:09:23;96346.84;;;15.24;65.65
60228;BME280;46091;46.512;6.626;2023-04-23T06:11:26;96349.41;;;15.30;65.58
60228;BME280;46091;46.512;6.626;2023-04-23T06:13:29;96344.16;;;15.35;65.36
60228;BME280;46091;46.512;6.626;2023-04-23T06:15:32;96344.50;;;15.39;65.62
60228;BME280;46091;46.512;6.626;2023-04-23T06:17:35;96346.13;;;15.40;65.40
60228;BME280;46091;46.512;6.626;2023-04-23T06:19:40;96346.72;;;15.42;65.50
60228;BME280;46091;46.512;6.626;2023-04-23T06:21:43;96349.94;;;15.44;65.59
60228;BME280;46091;46.512;6.626;2023-04-23T06:23:46;96355.84;;;15.46;65.45
60228;BME280;46091;46.512;6.626;2023-04-23T06:25:49;96346.81;;;15.47;65.48
60228;BME280;46091;46.512;6.626;2023-04-23T06:27:51;96355.38;;;15.49;65.60
60228;BME280;46091;46.512;6.626;2023-04-23T06:29:54;96351.66;;;15.50;65.40
60228;BME280;46091;46.512;6.626;2023-04-23T06:32:01;96348.09;;;15.44;65.27
60228;BME280;46091;46.512;6.626;2023-04-23T06:34:05;96352.63;;;15.44;65.40
60228;BME280;46091;46.512;6.626;2023-04-23T06:36:09;96356.31;;;15.43;65.44
60228;BME280;46091;46.512;6.626;2023-04-23T06:38:12;96351.00;;;15.43;65.54
60228;BME280;46091;46.512;6.626;2023-04-23T06:40:15;96351.22;;;15.41;65.41
60228;BME280;46091;46.512;6.626;2023-04-23T06:42:17;96346.94;;;15.40;65.46
60228;BME280;46091;46.512;6.626;2023-04-23T06:44:20;96348.78;;;15.40;65.33
60228;BME280;46091;46.512;6.626;2023-04-23T06:46:23;96342.63;;;15.39;65.29
60228;BME280;46091;46.512;6.626;2023-04-23T06:48:26;96335.69;;;15.38;65.28
60228;BME280;46091;46.512;6.626;2023-04-23T06:50:29;96339.66;;;15.36;65.36
60228;BME280;46091;46.512;6.626;2023-04-23T06:52:33;96332.22;;;15.38;65.21
60228;BME280;46091;46.512;6.626;2023-04-23T06:54:36;96342.06;;;15.37;65.38
60228;BME280;46091;46.512;6.626;2023-04-23T06:56:40;96331.78;;;15.41;65.34
60228;BME280;46091;46.512;6.626;2023-04-23T06:58:43;96340.91;;;15.45;65.16
60228;BME280;46091;46.512;6.626;2023-04-23T07:00:46;96337.28;;;15.51;65.09
60228;BME280;46091;46.512;6.626;2023-04-23T07:02:49;96327.81;;;15.55;65.01
60228;BME280;46091;46.512;6.626;2023-04-23T07:04:52;96331.28;;;15.56;65.12
60228;BME280;46091;46.512;6.626;2023-04-23T07:06:55;96327.31;;;15.58;64.74
60228;BME280;46091;46.512;6.626;2023-04-23T07:09:00;96321.53;;;15.61;65.08
60228;BME280;46091;46.512;6.626;2023-04-23T07:11:02;96322.72;;;15.65;64.90
60228;BME280;46091;46.512;6.626;2023-04-23T07:13:05;96329.19;;;15.69;64.78
60228;BME280;46091;46.512;6.626;2023-04-23T07:15:09;96329.75;;;15.71;64.92
60228;BME280;46091;46.512;6.626;2023-04-23T07:17:12;96327.09;;;15.71;64.71
60228;BME280;46091;46.512;6.626;2023-04-23T07:19:15;96324.66;;;15.70;64.62
60228;BME280;46091;46.512;6.626;2023-04-23T07:21:18;96327.09;;;15.71;64.67
60228;BME280;46091;46.512;6.626;2023-04-23T07:23:21;96328.13;;;15.70;64.69
60228;BME280;46091;46.512;6.626;2023-04-23T07:25:25;96337.28;;;15.75;64.71
60228;BME280;46091;46.512;6.626;2023-04-23T07:27:28;96324.78;;;15.75;64.50
60228;BME280;46091;46.512;6.626;2023-04-23T07:29:32;96320.81;;;15.78;64.34
60228;BME280;46091;46.512;6.626;2023-04-23T07:31:38;96330.19;;;15.80;64.27
60228;BME280;46091;46.512;6.626;2023-04-23T07:33:42;96320.81;;;15.78;64.48
60228;BME280;46091;46.512;6.626;2023-04-23T07:35:48;96320.47;;;15.74;64.23
60228;BME280;46091;46.512;6.626;2023-04-23T07:37:51;96318.50;;;15.69;64.13
60228;BME280;46091;46.512;6.626;2023-04-23T07:39:56;96317.38;;;15.65;64.33
60228;BME280;46091;46.512;6.626;2023-04-23T07:42:03;96307.78;;;15.64;64.33
60228;BME280;46091;46.512;6.626;2023-04-23T07:44:07;96310.28;;;15.59;64.26
60228;BME280;46091;46.512;6.626;2023-04-23T07:46:12;96319.47;;;15.63;64.34
60228;BME280;46091;46.512;6.626;2023-04-23T07:48:15;96316.22;;;15.61;64.24
60228;BME280;46091;46.512;6.626;2023-04-23T07:50:19;96307.78;;;15.64;64.35
60228;BME280;46091;46.512;6.626;2023-04-23T07:52:22;96304.06;;;15.65;64.31
60228;BME280;46091;46.512;6.626;2023-04-23T07:54:27;96292.59;;;15.65;64.30
60228;BME280;46091;46.512;6.626;2023-04-23T07:56:33;96297.19;;;15.69;64.36
60228;BME280;46091;46.512;6.626;2023-04-23T07:58:40;96298.81;;;15.70;64.40
60228;BME280;46091;46.512;6.626;2023-04-23T08:00:43;96300.44;;;15.71;64.36
60228;BME280;46091;46.512;6.626;2023-04-23T08:02:46;96295.09;;;15.71;64.05
60228;BME280;46091;46.512;6.626;2023-04-23T08:04:49;96298.34;;;15.73;64.20
60228;BME280;46091;46.512;6.626;2023-04-23T08:06:53;96294.66;;;15.75;64.06
60228;BME280;46091;46.512;6.626;2023-04-23T08:08:56;96291.38;;;15.72;64.29
60228;BME280;46091;46.512;6.626;2023-04-23T08:10:58;96296.72;;;15.72;64.24
60228;BME280;46091;46.512;6.626;2023-04-23T08:13:02;96297.31;;;15.75;64.20
60228;BME280;46091;46.512;6.626;2023-04-23T08:15:07;96297.31;;;15.75;64.20
60228;BME280;46091;46.512;6.626;2023-04-23T08:17:10;96296.72;;;15.72;64.15
60228;BME280;46091;46.512;6.626;2023-04-23T08:19:13;96304.94;;;15.71;64.11
60228;BME280;46091;46.512;6.626;2023-04-23T08:21:16;96300.91;;;15.68;64.15
60228;BME280;46091;46.512;6.626;2023-04-23T08:23:19;96297.19;;;15.69;64.17
60228;BME280;46091;46.512;6.626;2023-04-23T08:25:22;96299.06;;;15.69;64.21
60228;BME280;46091;46.512;6.626;2023-04-23T08:27:25;96297.69;;;15.66;64.18
60228;BME280;46091;46.512;6.626;2023-04-23T08:29:28;96303.00;;;15.66;64.09
60228;BME280;46091;46.512;6.626;2023-04-23T08:31:32;96293.16;;;15.67;64.21
60228;BME280;46091;46.512;6.626;2023-04-23T08:33:36;96298.50;;;15.67;64.20
60228;BME280;46091;46.512;6.626;2023-04-23T08:35:39;96300.09;;;15.68;64.02
60228;BME280;46091;46.512;6.626;2023-04-23T08:37:42;96292.69;;;15.70;64.00
60228;BME280;46091;46.512;6.626;2023-04-23T08:39:46;96293.25;;;15.72;64.02
60228;BME280;46091;46.512;6.626;2023-04-23T08:41:53;96282.03;;;15.70;64.18
60228;BME280;46091;46.512;6.626;2023-04-23T08:44:06;96293.00;;;15.73;63.93
60228;BME280;46091;46.512;6.626;2023-04-23T08:46:14;96298.69;;;15.77;63.83
60228;BME280;46091;46.512;6.626;2023-04-23T08:48:21;96301.69;;;15.81;63.91
60228;BME280;46091;46.512;6.626;2023-04-23T08:50:25;96299.00;;;15.81;63.73
60228;BME280;46091;46.512;6.626;2023-04-23T08:52:32;96292.06;;;15.80;63.79
60228;BME280;46091;46.512;6.626;2023-04-23T08:54:36;96288.34;;;15.81;63.59
60228;BME280;46091;46.512;6.626;2023-04-23T08:56:43;96289.16;;;15.81;63.51
60228;BME280;46091;46.512;6.626;2023-04-23T08:58:49;96291.00;;;15.81;63.49
60228;BME280;46091;46.512;6.626;2023-04-23T09:00:53;96293.78;;;15.86;63.53
60228;BME280;46091;46.512;6.626;2023-04-23T09:02:57;96290.06;;;15.87;63.48
60228;BME280;46091;46.512;6.626;2023-04-23T09:05:03;96282.66;;;15.89;63.56
60228;BME280;46091;46.512;6.626;2023-04-23T09:07:06;96279.97;;;15.89;63.42
60228;BME280;46091;46.512;6.626;2023-04-23T09:09:14;96282.41;;;15.90;63.24
60228;BME280;46091;46.512;6.626;2023-04-23T09:11:18;96277.88;;;15.91;63.30
60228;BME280;46091;46.512;6.626;2023-04-23T09:13:22;96280.31;;;15.92;63.17
60228;BME280;46091;46.512;6.626;2023-04-23T09:15:25;96268.34;;;15.95;63.22
60228;BME280;46091;46.512;6.626;2023-04-23T09:17:30;96264.19;;;15.99;63.15
60228;BME280;46091;46.512;6.626;2023-04-23T09:19:38;96266.91;;;16.04;63.13
60228;BME280;46091;46.512;6.626;2023-04-23T09:21:44;96259.47;;;16.06;63.04
60228;BME280;46091;46.512;6.626;2023-04-23T09:23:51;96262.72;;;16.08;62.93
60228;BME280;46091;46.512;6.626;2023-04-23T09:25:55;96261.44;;;16.11;62.87
60228;BME280;46091;46.512;6.626;2023-04-23T09:27:59;96268.16;;;16.13;62.86
60228;BME280;46091;46.512;6.626;2023-04-23T09:30:03;96269.50;;;16.16;62.95
60228;BME280;46091;46.512;6.626;2023-04-23T09:32:08;96266.84;;;16.16;62.75
60228;BME280;46091;46.512;6.626;2023-04-23T09:34:13;96257.22;;;16.15;62.44
60228;BME280;46091;46.512;6.626;2023-04-23T09:36:19;96265.78;;;16.17;62.44
60228;BME280;46091;46.512;6.626;2023-04-23T09:38:24;96260.47;;;16.17;62.50
60228;BME280;46091;46.512;6.626;2023-04-23T09:40:30;96258.59;;;16.17;62.38
60228;BME280;46091;46.512;6.626;2023-04-23T09:42:34;96262.44;;;16.21;62.16
60228;BME280;46091;46.512;6.626;2023-04-23T09:44:40;96247.69;;;16.19;62.31
60228;BME280;46091;46.512;6.626;2023-04-23T09:46:49;96256.59;;;16.24;62.09
60228;BME280;46091;46.512;6.626;2023-04-23T09:48:57;96257.16;;;16.26;61.80
60228;BME280;46091;46.512;6.626;2023-04-23T09:51:01;96252.31;;;16.23;61.83
60228;BME280;46091;46.512;6.626;2023-04-23T09:53:05;96254.50;;;16.26;61.52
60228;BME280;46091;46.512;6.626;2023-04-23T09:55:09;96256.09;;;16.27;61.83
60228;BME280;46091;46.512;6.626;2023-04-23T09:57:12;96255.06;;;16.28;61.70
60228;BME280;46091;46.512;6.626;2023-04-23T09:59:19;96250.06;;;16.32;61.57
60228;BME280;46091;46.512;6.626;2023-04-23T10:01:44;96242.38;;;16.36;61.35
60228;BME280;46091;46.512;6.626;2023-04-23T10:03:52;96243.75;;;16.38;61.42
60228;BME280;46091;46.512;6.626;2023-04-23T10:05:55;96246.97;;;16.40;61.35
60228;BME280;46091;46.512;6.626;2023-04-23T10:08:04;96239.22;;;16.39;61.30
60228;BME280;46091;46.512;6.626;2023-04-23T10:10:10;96239.22;;;16.39;61.15
60228;BME280;46091;46.512;6.626;2023-04-23T10:12:13;96236.88;;;16.42;61.18
60228;BME280;46091;46.512;6.626;2023-04-23T10:14:19;96237.22;;;16.46;61.04
60228;BME280;46091;46.512;6.626;2023-04-23T10:16:22;96241.00;;;16.50;60.81
60228;BME280;46091;46.512;6.626;2023-04-23T10:18:39;96235.75;;;16.55;60.94
60228;BME280;46091;46.512;6.626;2023-04-23T10:20:42;96224.56;;;16.58;60.70
60228;BME280;46091;46.512;6.626;2023-04-23T10:22:45;96228.13;;;16.64;60.80
60228;BME280;46091;46.512;6.626;2023-04-23T10:24:51;96219.72;;;16.72;60.55
60228;BME280;46091;46.512;6.626;2023-04-23T10:27:00;96216.56;;;16.75;60.38
60228;BME280;46091;46.512;6.626;2023-04-23T10:29:03;96216.41;;;16.81;60.44
60228;BME280;46091;46.512;6.626;2023-04-23T10:31:07;96212.50;;;16.89;60.27
60228;BME280;46091;46.512;6.626;2023-04-23T10:33:11;96220.66;;;16.99;60.05
60228;BME280;46091;46.512;6.626;2023-04-23T10:35:30;96219.66;;;17.05;60.06
60228;BME280;46091;46.512;6.626;2023-04-23T10:37:33;96223.94;;;17.06;59.81
60228;BME280;46091;46.512;6.626;2023-04-23T10:39:37;96222.06;;;17.07;59.84
60228;BME280;46091;46.512;6.626;2023-04-23T10:41:40;96211.13;;;17.08;59.81
60228;BME280;46091;46.512;6.626;2023-04-23T10:43:46;96209.34;;;17.14;59.77
60228;BME280;46091;46.512;6.626;2023-04-23T10:45:49;96211.50;;;17.17;59.55
60228;BME280;46091;46.512;6.626;2023-04-23T10:47:52;96207.78;;;17.18;59.50
60228;BME280;46091;46.512;6.626;2023-04-23T10:49:57;96198.22;;;17.22;59.47
60228;BME280;46091;46.512;6.626;2023-04-23T10:52:19;96204.97;;;17.30;59.19
60228;BME280;46091;46.512;6.626;2023-04-23T10:54:30;96204.81;;;17.36;59.17
60228;BME280;46091;46.512;6.626;2023-04-23T10:56:33;96196.03;;;17.41;58.90